createdAt,value
2018-03-26T00:01:16.078Z,6.50
2018-03-26T00:03:42.051Z,6.40
2018-03-26T00:06:08.035Z,6.30
2018-03-26T00:08:35.072Z,6.20
2018-03-26T00:11:01.791Z,6.30
2018-03-26T00:13:27.806Z,6.20
2018-03-26T00:15:53.794Z,6.20
2018-03-26T00:18:19.795Z,6.20
2018-03-26T00:20:45.794Z,6.30
2018-03-26T00:23:11.803Z,6.30
2018-03-26T00:25:37.794Z,6.30
2018-03-26T00:28:03.807Z,6.40
2018-03-26T00:30:29.787Z,6.30
2018-03-26T00:32:55.798Z,6.40
2018-03-26T00:35:21.774Z,6.30
2018-03-26T00:37:47.762Z,6.40
2018-03-26T00:40:13.754Z,6.40
2018-03-26T00:42:39.826Z,6.30
2018-03-26T00:45:06.550Z,6.30
2018-03-26T00:47:32.567Z,6.30
2018-03-26T00:49:58.588Z,6.30
2018-03-26T00:52:24.594Z,6.30
2018-03-26T00:54:50.578Z,6.20
2018-03-26T00:57:17.295Z,6.00
2018-03-26T00:59:44.052Z,5.90
2018-03-26T01:02:10.766Z,5.90
2018-03-26T01:04:36.765Z,5.90
2018-03-26T01:07:02.758Z,5.90
2018-03-26T01:09:28.730Z,5.90
2018-03-26T01:11:54.738Z,5.90
2018-03-26T01:14:20.737Z,5.90
2018-03-26T01:16:46.723Z,5.90
2018-03-26T01:19:12.707Z,5.90
2018-03-26T01:21:38.691Z,5.90
2018-03-26T01:24:04.976Z,6.00
2018-03-26T01:26:30.956Z,5.90
2018-03-26T01:28:56.939Z,5.90
2018-03-26T01:31:23.686Z,5.80
2018-03-26T01:33:50.423Z,5.80
2018-03-26T01:36:16.374Z,5.80
2018-03-26T01:38:42.367Z,5.80
2018-03-26T01:41:09.085Z,5.70
2018-03-26T01:43:35.131Z,5.70
2018-03-26T01:46:02.094Z,5.60
2018-03-26T01:48:28.100Z,5.50
2018-03-26T01:50:54.817Z,5.60
2018-03-26T01:53:20.825Z,5.60
2018-03-26T01:55:46.802Z,5.50
2018-03-26T01:58:12.809Z,5.50
2018-03-26T02:00:39.544Z,5.50
2018-03-26T02:03:06.283Z,5.30
2018-03-26T02:05:33.010Z,5.20
2018-03-26T02:07:59.031Z,5.20
2018-03-26T02:10:25.036Z,5.10
2018-03-26T02:12:51.008Z,5.20
2018-03-26T02:15:16.993Z,5.20
2018-03-26T02:17:42.961Z,5.20
2018-03-26T02:20:09.686Z,5.10
2018-03-26T02:22:35.644Z,5.10
2018-03-26T02:25:01.610Z,5.10
2018-03-26T02:27:27.587Z,5.10
2018-03-26T02:29:53.590Z,5.00
2018-03-26T02:32:19.570Z,5.00
2018-03-26T02:34:45.554Z,5.00
2018-03-26T02:37:11.541Z,5.00
2018-03-26T02:39:38.270Z,5.10
2018-03-26T02:42:04.262Z,5.10
2018-03-26T02:44:30.243Z,5.10
2018-03-26T02:46:56.222Z,5.10
2018-03-26T02:49:22.235Z,5.10
2018-03-26T02:51:48.224Z,5.00
2018-03-26T02:54:14.259Z,5.00
2018-03-26T02:56:40.260Z,4.90
2018-03-26T02:59:06.380Z,5.00
2018-03-26T03:01:32.395Z,4.90
2018-03-26T03:03:58.382Z,4.90
2018-03-26T03:06:24.366Z,4.70
2018-03-26T03:08:50.348Z,4.70
2018-03-26T03:11:16.351Z,4.70
2018-03-26T03:13:42.367Z,4.70
2018-03-26T03:16:08.372Z,4.80
2018-03-26T03:18:34.354Z,4.70
2018-03-26T03:21:01.099Z,4.60
2018-03-26T03:23:27.838Z,4.60
2018-03-26T03:25:53.858Z,4.60
2018-03-26T03:28:19.832Z,4.60
2018-03-26T03:30:45.832Z,4.70
2018-03-26T03:33:11.812Z,4.60
2018-03-26T03:35:37.811Z,4.50
2018-03-26T03:38:03.787Z,4.50
2018-03-26T03:40:29.796Z,4.50
2018-03-26T03:42:56.535Z,4.60
2018-03-26T03:45:23.378Z,4.50
2018-03-26T03:47:50.106Z,4.50
2018-03-26T03:50:16.850Z,4.40
2018-03-26T03:52:43.603Z,4.40
2018-03-26T03:55:10.323Z,4.30
2018-03-26T03:57:36.324Z,4.30
2018-03-26T04:00:02.375Z,4.20
2018-03-26T04:02:29.110Z,4.20
2018-03-26T04:04:55.116Z,4.20
2018-03-26T04:07:21.118Z,4.20
2018-03-26T04:09:47.099Z,4.20
2018-03-26T04:12:13.851Z,4.20
2018-03-26T04:14:40.571Z,4.30
2018-03-26T04:17:06.558Z,4.30
2018-03-26T04:19:32.527Z,4.20
2018-03-26T04:21:59.278Z,4.20
2018-03-26T04:24:25.985Z,4.20
2018-03-26T04:26:51.958Z,4.20
2018-03-26T04:29:17.943Z,4.20
2018-03-26T04:31:44.666Z,4.10
2018-03-26T04:34:10.651Z,4.10
2018-03-26T04:36:36.647Z,4.00
2018-03-26T04:39:03.358Z,4.00
2018-03-26T04:41:30.119Z,3.90
2018-03-26T04:43:56.847Z,3.80
2018-03-26T04:46:22.834Z,3.80
2018-03-26T04:48:48.867Z,3.70
2018-03-26T04:51:14.864Z,3.60
2018-03-26T04:53:40.849Z,3.50
2018-03-26T04:56:07.618Z,3.60
2018-03-26T04:58:33.626Z,3.60
2018-03-26T05:00:59.634Z,3.70
2018-03-26T05:03:30.370Z,3.50
2018-03-26T05:05:57.119Z,3.50
2018-03-26T05:08:23.600Z,3.50
2018-03-26T05:10:50.404Z,3.50
2018-03-26T05:13:16.451Z,3.50
2018-03-26T05:15:42.462Z,3.60
2018-03-26T05:18:08.496Z,3.60
2018-03-26T05:20:34.528Z,3.50
2018-03-26T05:23:00.580Z,3.50
2018-03-26T05:25:26.594Z,3.50
2018-03-26T05:27:52.636Z,3.50
2018-03-26T05:30:18.655Z,3.50
2018-03-26T05:32:44.651Z,3.50
2018-03-26T05:35:10.680Z,3.60
2018-03-26T05:37:36.691Z,3.60
2018-03-26T05:40:02.741Z,3.70
2018-03-26T05:42:28.796Z,3.60
2018-03-26T05:44:55.559Z,3.50
2018-03-26T05:47:21.554Z,3.50
2018-03-26T05:49:48.310Z,3.60
2018-03-26T05:52:15.078Z,3.60
2018-03-26T05:54:41.785Z,3.70
2018-03-26T05:57:08.502Z,3.70
2018-03-26T05:59:34.486Z,3.70
2018-03-26T06:02:00.487Z,3.70
2018-03-26T06:04:27.222Z,3.70
2018-03-26T06:06:53.216Z,3.70
2018-03-26T06:09:19.203Z,3.60
2018-03-26T06:11:45.211Z,3.60
2018-03-26T06:14:11.223Z,3.60
2018-03-26T06:16:43.572Z,3.60
2018-03-26T06:19:09.630Z,3.60
2018-03-26T06:21:35.623Z,3.40
2018-03-26T06:24:02.380Z,3.50
2018-03-26T06:26:28.423Z,3.50
2018-03-26T06:28:54.419Z,3.50
2018-03-26T06:31:20.478Z,3.50
2018-03-26T06:33:46.443Z,3.50
2018-03-26T06:36:18.541Z,3.50
2018-03-26T06:39:00.218Z,3.50
2018-03-26T06:41:26.958Z,3.60
2018-03-26T06:43:52.962Z,3.60
2018-03-26T06:46:18.990Z,3.60
2018-03-26T06:48:45.728Z,3.60
2018-03-26T06:51:11.733Z,3.60
2018-03-26T06:53:37.706Z,3.60
2018-03-26T06:56:03.710Z,3.70
2018-03-26T06:58:30.458Z,3.60
2018-03-26T07:00:56.474Z,3.60
2018-03-26T07:03:23.189Z,3.40
2018-03-26T07:05:49.247Z,3.40
2018-03-26T07:08:15.999Z,3.50
2018-03-26T07:10:42.013Z,3.50
2018-03-26T07:13:08.045Z,3.50
2018-03-26T07:15:34.063Z,3.50
2018-03-26T07:18:00.062Z,3.50
2018-03-26T07:20:26.081Z,3.60
2018-03-26T07:22:52.948Z,3.70
2018-03-26T07:25:18.960Z,3.70
2018-03-26T07:27:45.706Z,3.60
2018-03-26T07:30:11.690Z,3.60
2018-03-26T07:32:37.695Z,3.60
2018-03-26T07:35:03.720Z,3.70
2018-03-26T07:37:29.724Z,3.70
2018-03-26T07:39:56.423Z,3.60
2018-03-26T07:42:22.418Z,3.60
2018-03-26T07:44:48.399Z,3.60
2018-03-26T07:47:15.133Z,3.70
2018-03-26T07:49:41.867Z,3.70
2018-03-26T07:52:08.611Z,3.60
2018-03-26T07:54:34.602Z,3.60
2018-03-26T07:57:00.599Z,3.60
2018-03-26T07:59:26.590Z,3.70
2018-03-26T08:01:52.604Z,3.90
2018-03-26T08:04:18.602Z,3.90
2018-03-26T08:06:45.355Z,3.90
2018-03-26T08:09:12.075Z,4.00
2018-03-26T08:11:38.154Z,4.00
2018-03-26T08:14:04.267Z,4.20
2018-03-26T08:16:30.349Z,4.30
2018-03-26T08:18:56.365Z,4.30
2018-03-26T08:21:22.375Z,4.20
2018-03-26T08:23:48.355Z,4.20
2018-03-26T08:26:15.075Z,4.20
2018-03-26T08:28:41.108Z,4.10
2018-03-26T08:31:07.845Z,4.20
2018-03-26T08:33:34.570Z,4.30
2018-03-26T08:36:00.552Z,4.30
2018-03-26T08:38:26.557Z,4.40
2018-03-26T08:40:53.273Z,4.50
2018-03-26T08:43:20.023Z,4.60
2018-03-26T08:45:46.763Z,4.60
2018-03-26T08:48:12.792Z,4.60
2018-03-26T08:50:39.522Z,4.50
2018-03-26T08:53:06.283Z,4.60
2018-03-26T08:55:33.003Z,4.60
2018-03-26T08:57:59.743Z,4.80
2018-03-26T09:00:26.463Z,4.80
2018-03-26T09:02:52.462Z,4.80
2018-03-26T09:05:18.450Z,4.90
2018-03-26T09:07:44.447Z,5.00
2018-03-26T09:10:11.176Z,5.10
2018-03-26T09:12:37.202Z,5.00
2018-03-26T09:15:03.298Z,5.10
2018-03-26T09:17:30.074Z,5.00
2018-03-26T09:19:56.075Z,5.00
2018-03-26T09:22:22.086Z,5.30
2018-03-26T09:24:48.118Z,5.60
2018-03-26T09:27:14.098Z,5.60
2018-03-26T09:29:40.111Z,5.60
2018-03-26T09:32:06.098Z,5.70
2018-03-26T09:34:32.101Z,6.00
2018-03-26T09:36:58.891Z,6.40
2018-03-26T09:39:25.663Z,8.00
2018-03-26T09:41:52.355Z,8.80
2018-03-26T09:44:18.367Z,8.80
2018-03-26T09:46:44.343Z,9.30
2018-03-26T09:49:10.372Z,9.50
2018-03-26T09:51:36.346Z,9.50
2018-03-26T09:54:02.367Z,9.40
2018-03-26T09:56:28.327Z,9.50
2018-03-26T09:58:54.353Z,9.50
2018-03-26T10:01:21.082Z,9.20
2018-03-26T10:03:47.074Z,9.20
2018-03-26T10:06:13.049Z,8.60
2018-03-26T10:08:39.059Z,8.20
2018-03-26T10:11:05.779Z,8.20
2018-03-26T10:13:31.797Z,8.20
2018-03-26T10:15:58.540Z,8.00
2018-03-26T10:18:24.611Z,8.00
2018-03-26T10:20:50.613Z,8.10
2018-03-26T10:23:16.598Z,8.00
2018-03-26T10:25:43.356Z,8.40
2018-03-26T10:28:10.095Z,8.50
2018-03-26T10:30:36.838Z,8.60
2018-03-26T10:33:03.562Z,8.60
2018-03-26T10:35:30.470Z,8.70
2018-03-26T10:37:56.447Z,8.70
2018-03-26T10:40:23.498Z,9.30
2018-03-26T10:42:50.214Z,9.40
2018-03-26T10:45:16.957Z,9.20
2018-03-26T10:47:43.718Z,9.40
2018-03-26T10:50:10.502Z,9.60
2018-03-26T10:52:36.496Z,9.60
2018-03-26T10:55:02.482Z,10.00
2018-03-26T10:57:28.495Z,9.70
2018-03-26T10:59:55.250Z,9.60
2018-03-26T11:02:21.974Z,9.40
2018-03-26T11:04:48.011Z,9.40
2018-03-26T11:07:14.762Z,9.20
2018-03-26T11:09:41.512Z,8.90
2018-03-26T11:12:07.563Z,8.90
2018-03-26T11:14:33.559Z,8.70
2018-03-26T11:17:00.299Z,8.90
2018-03-26T11:19:27.020Z,9.30
2018-03-26T11:21:53.028Z,9.30
2018-03-26T11:24:19.005Z,9.10
2018-03-26T11:26:45.722Z,8.70
2018-03-26T11:29:12.452Z,8.60
2018-03-26T11:31:38.442Z,8.60
2018-03-26T11:34:04.698Z,8.70
2018-03-26T11:36:30.685Z,8.80
2018-03-26T11:38:56.670Z,8.60
2018-03-26T11:41:22.781Z,8.60
2018-03-26T11:43:49.020Z,8.80
2018-03-26T11:46:15.020Z,9.30
2018-03-26T11:48:41.765Z,10.30
2018-03-26T11:51:07.766Z,10.30
2018-03-26T11:53:33.756Z,10.40
2018-03-26T11:56:00.858Z,10.10
2018-03-26T11:58:27.435Z,10.10
2018-03-26T12:00:53.912Z,9.70
2018-03-26T12:03:19.932Z,9.80
2018-03-26T12:05:45.975Z,9.90
2018-03-26T12:08:11.978Z,9.50
2018-03-26T12:10:37.971Z,9.30
2018-03-26T12:13:03.976Z,9.20
2018-03-26T12:15:29.966Z,8.80
2018-03-26T12:17:55.972Z,8.60
2018-03-26T12:20:28.126Z,8.50
2018-03-26T12:22:55.310Z,8.60
2018-03-26T12:25:21.393Z,8.80
2018-03-26T12:27:53.415Z,8.80
2018-03-26T12:30:20.171Z,8.90
2018-03-26T12:32:48.172Z,8.90
2018-03-26T12:35:20.355Z,8.80
2018-03-26T12:37:46.377Z,8.60
2018-03-26T12:40:18.415Z,8.50
2018-03-26T12:42:44.415Z,8.50
2018-03-26T12:45:16.471Z,8.40
2018-03-26T12:47:43.231Z,8.30
2018-03-26T12:50:09.263Z,8.20
2018-03-26T12:52:41.441Z,8.10
2018-03-26T12:55:07.430Z,8.00
2018-03-26T12:57:42.368Z,8.10
2018-03-26T13:00:08.430Z,8.10
2018-03-26T13:02:35.143Z,8.30
2018-03-26T13:05:01.296Z,8.30
2018-03-26T13:07:27.283Z,8.40
2018-03-26T13:09:53.255Z,8.40
2018-03-26T13:12:19.231Z,8.50
2018-03-26T13:14:45.223Z,8.50
2018-03-26T13:17:11.981Z,8.10
2018-03-26T13:19:38.707Z,7.90
2018-03-26T13:22:05.427Z,7.90
2018-03-26T13:24:31.422Z,7.90
2018-03-26T13:26:57.416Z,8.00
2018-03-26T13:29:23.559Z,8.00
2018-03-26T13:31:49.579Z,8.20
2018-03-26T13:34:15.606Z,8.10
2018-03-26T13:36:41.586Z,8.00
2018-03-26T13:39:07.603Z,7.70
2018-03-26T13:41:33.607Z,7.70
2018-03-26T13:43:59.607Z,7.60
2018-03-26T13:46:25.621Z,7.60
2018-03-26T13:48:51.639Z,7.70
2018-03-26T13:51:17.686Z,7.70
2018-03-26T13:53:43.707Z,7.80
2018-03-26T13:56:09.692Z,8.00
2018-03-26T13:58:36.514Z,8.10
2018-03-26T14:01:02.470Z,8.10
2018-03-26T14:03:28.518Z,9.10
2018-03-26T14:05:54.643Z,9.30
2018-03-26T14:08:26.674Z,9.10
2018-03-26T14:10:59.415Z,8.70
2018-03-26T14:13:31.463Z,8.70
2018-03-26T14:16:03.558Z,8.40
2018-03-26T14:18:29.649Z,8.30
2018-03-26T14:20:56.331Z,8.20
2018-03-26T14:23:22.285Z,8.20
2018-03-26T14:25:48.279Z,8.20
2018-03-26T14:28:14.247Z,8.20
2018-03-26T14:30:40.253Z,8.20
2018-03-26T14:33:06.963Z,8.30
2018-03-26T14:35:47.930Z,8.30
2018-03-26T14:38:13.911Z,8.30
2018-03-26T14:40:39.915Z,8.40
2018-03-26T14:43:06.639Z,8.40
2018-03-26T14:45:33.385Z,8.40
2018-03-26T14:48:00.131Z,8.40
2018-03-26T14:50:26.131Z,8.40
2018-03-26T14:52:52.845Z,9.70
2018-03-26T14:55:18.842Z,9.60
2018-03-26T14:57:44.831Z,9.40
2018-03-26T15:00:11.558Z,9.20
2018-03-26T15:02:37.573Z,9.20
2018-03-26T15:05:03.627Z,8.80
2018-03-26T15:07:29.711Z,8.50
2018-03-26T15:09:55.687Z,8.40
2018-03-26T15:12:21.691Z,8.10
2018-03-26T15:14:48.459Z,8.00
2018-03-26T15:17:14.443Z,8.00
2018-03-26T15:19:41.175Z,8.20
2018-03-26T15:22:07.175Z,8.20
2018-03-26T15:24:33.158Z,8.00
2018-03-26T15:26:59.164Z,8.10
2018-03-26T15:29:25.891Z,9.00
2018-03-26T15:31:51.911Z,9.00
2018-03-26T15:34:18.643Z,8.80
2018-03-26T15:36:44.642Z,8.70
2018-03-26T15:39:10.635Z,8.60
2018-03-26T15:41:36.615Z,8.40
2018-03-26T15:44:02.627Z,8.40
2018-03-26T15:46:28.606Z,8.30
2018-03-26T15:48:55.339Z,8.50
2018-03-26T15:51:21.354Z,8.50
2018-03-26T15:53:48.135Z,8.70
2018-03-26T15:56:14.111Z,8.70
2018-03-26T15:58:40.096Z,8.80
2018-03-26T16:01:06.096Z,8.70
2018-03-26T16:03:32.115Z,8.60
2018-03-26T16:05:58.107Z,8.50
2018-03-26T16:08:26.100Z,8.60
2018-03-26T16:10:52.084Z,8.50
2018-03-26T16:13:18.101Z,8.40
2018-03-26T16:15:44.847Z,8.20
2018-03-26T16:18:11.598Z,8.20
2018-03-26T16:20:37.571Z,8.10
2018-03-26T16:23:03.574Z,8.10
2018-03-26T16:25:29.590Z,8.20
2018-03-26T16:27:55.682Z,8.30
2018-03-26T16:30:23.891Z,8.30
2018-03-26T16:32:49.912Z,8.20
2018-03-26T16:35:15.906Z,8.20
2018-03-26T16:37:41.883Z,8.20
2018-03-26T16:40:07.894Z,8.30
2018-03-26T16:42:40.072Z,8.20
2018-03-26T16:45:06.074Z,8.20
2018-03-26T16:47:32.799Z,8.20
2018-03-26T16:49:59.555Z,8.10
2018-03-26T16:52:25.567Z,8.10
2018-03-26T16:54:52.339Z,7.90
2018-03-26T16:57:18.339Z,7.90
2018-03-26T16:59:44.363Z,7.80
2018-03-26T17:02:10.357Z,7.80
2018-03-26T17:04:36.367Z,7.70
2018-03-26T17:07:02.363Z,7.60
2018-03-26T17:09:28.326Z,7.50
2018-03-26T17:11:54.327Z,7.50
2018-03-26T17:14:20.505Z,7.40
2018-03-26T17:16:46.613Z,7.40
2018-03-26T17:19:12.818Z,7.30
2018-03-26T17:21:38.839Z,7.20
2018-03-26T17:24:04.962Z,7.30
2018-03-26T17:26:32.951Z,7.30
2018-03-26T17:28:59.025Z,7.30
2018-03-26T17:31:25.047Z,7.20
2018-03-26T17:33:51.023Z,7.20
2018-03-26T17:36:17.038Z,7.30
2018-03-26T17:38:43.015Z,7.20
2018-03-26T17:41:09.044Z,7.10
2018-03-26T17:43:35.019Z,7.20
2018-03-26T17:46:01.028Z,7.10
2018-03-26T17:48:27.047Z,7.40
2018-03-26T17:50:53.855Z,7.10
2018-03-26T17:53:19.863Z,7.10
2018-03-26T17:55:45.844Z,6.90
2018-03-26T17:58:11.894Z,6.80
2018-03-26T18:00:38.634Z,6.60
2018-03-26T18:03:04.643Z,6.60
2018-03-26T18:05:31.363Z,6.50
2018-03-26T18:07:57.350Z,6.50
2018-03-26T18:10:23.373Z,6.50
2018-03-26T18:12:49.395Z,6.40
2018-03-26T18:15:15.379Z,6.40
2018-03-26T18:17:41.369Z,6.40
2018-03-26T18:20:07.319Z,6.40
2018-03-26T18:22:33.387Z,6.30
2018-03-26T18:25:01.190Z,6.30
2018-03-26T18:27:27.222Z,6.30
2018-03-26T18:29:53.190Z,6.30
2018-03-26T18:32:19.161Z,6.30
2018-03-26T18:34:45.146Z,6.20
2018-03-26T18:37:11.122Z,6.20
2018-03-26T18:39:37.142Z,6.20
2018-03-26T18:42:03.195Z,6.10
2018-03-26T18:44:29.205Z,6.00
2018-03-26T18:46:55.934Z,6.00
2018-03-26T18:49:21.959Z,5.90
2018-03-26T18:51:48.036Z,5.90
2018-03-26T18:54:14.023Z,5.90
2018-03-26T18:56:40.719Z,5.90
2018-03-26T18:59:06.694Z,5.90
2018-03-26T19:01:32.608Z,5.90
2018-03-26T19:03:58.572Z,5.90
2018-03-26T19:06:24.517Z,5.90
2018-03-26T19:08:50.502Z,5.90
2018-03-26T19:11:16.511Z,5.90
2018-03-26T19:13:43.262Z,5.80
2018-03-26T19:16:09.251Z,5.80
2018-03-26T19:18:35.234Z,5.80
2018-03-26T19:21:01.236Z,5.80
2018-03-26T19:23:27.252Z,5.70
2018-03-26T19:25:53.272Z,5.80
2018-03-26T19:28:19.262Z,5.80
2018-03-26T19:30:45.226Z,5.80
2018-03-26T19:33:12.058Z,5.80
2018-03-26T19:35:38.788Z,5.70
2018-03-26T19:38:05.515Z,5.70
2018-03-26T19:40:31.491Z,5.60
2018-03-26T19:42:57.471Z,5.60
2018-03-26T19:45:23.554Z,5.60
2018-03-26T19:47:49.518Z,5.60
2018-03-26T19:50:16.275Z,5.50
2018-03-26T19:52:42.323Z,5.60
2018-03-26T19:55:08.283Z,5.60
2018-03-26T19:57:34.247Z,5.50
2018-03-26T20:00:00.232Z,5.60
2018-03-26T20:02:26.300Z,5.50
2018-03-26T20:04:52.270Z,5.40
2018-03-26T20:07:18.259Z,5.40
2018-03-26T20:09:44.398Z,5.30
2018-03-26T20:12:10.396Z,5.30
2018-03-26T20:14:36.379Z,5.20
2018-03-26T20:17:02.385Z,5.10
2018-03-26T20:19:28.354Z,5.10
2018-03-26T20:21:54.356Z,5.10
2018-03-26T20:24:21.115Z,5.00
2018-03-26T20:26:47.830Z,5.00
2018-03-26T20:29:13.823Z,5.00
2018-03-26T20:31:39.822Z,5.00
2018-03-26T20:34:05.795Z,4.90
2018-03-26T20:36:31.763Z,4.90
2018-03-26T20:38:57.752Z,4.90
2018-03-26T20:41:24.093Z,4.80
2018-03-26T20:43:50.087Z,4.80
2018-03-26T20:46:16.099Z,4.70
2018-03-26T20:48:42.114Z,4.70
2018-03-26T20:51:08.083Z,4.70
2018-03-26T20:53:34.838Z,4.60
2018-03-26T20:56:01.551Z,4.60
2018-03-26T20:58:27.551Z,4.60
2018-03-26T21:00:53.562Z,4.60
2018-03-26T21:03:19.547Z,4.60
2018-03-26T21:05:46.256Z,4.50
2018-03-26T21:08:12.260Z,4.50
2018-03-26T21:10:38.243Z,4.50
2018-03-26T21:13:04.328Z,4.50
2018-03-26T21:15:30.323Z,4.40
2018-03-26T21:17:56.410Z,4.40
2018-03-26T21:20:22.386Z,4.40
2018-03-26T21:22:48.395Z,4.50
2018-03-26T21:25:14.387Z,4.50
2018-03-26T21:27:40.382Z,4.40
2018-03-26T21:30:07.106Z,4.50
2018-03-26T21:32:33.116Z,4.50
2018-03-26T21:34:59.111Z,4.50
2018-03-26T21:37:25.093Z,4.50
2018-03-26T21:39:51.815Z,4.50
2018-03-26T21:42:17.803Z,4.50
2018-03-26T21:44:43.850Z,4.40
2018-03-26T21:47:09.843Z,4.40
2018-03-26T21:49:35.923Z,4.40
2018-03-26T21:52:01.956Z,4.40
2018-03-26T21:54:27.979Z,4.40
2018-03-26T21:56:54.731Z,4.40
2018-03-26T21:59:20.726Z,4.40
2018-03-26T22:01:46.971Z,4.40
2018-03-26T22:04:13.711Z,4.30
2018-03-26T22:06:39.685Z,4.30
2018-03-26T22:09:05.926Z,4.20
2018-03-26T22:11:31.895Z,4.20
2018-03-26T22:13:58.662Z,4.20
2018-03-26T22:16:24.626Z,4.20
2018-03-26T22:18:50.634Z,4.10
2018-03-26T22:21:16.627Z,4.10
2018-03-26T22:23:42.611Z,4.10
2018-03-26T22:26:09.000Z,4.00
2018-03-26T22:28:35.894Z,4.00
2018-03-26T22:31:02.639Z,4.00
2018-03-26T22:33:28.637Z,3.90
2018-03-26T22:35:54.616Z,3.90
2018-03-26T22:38:20.606Z,3.90
2018-03-26T22:40:47.344Z,4.00
2018-03-26T22:43:13.351Z,3.90
2018-03-26T22:45:39.355Z,4.00
2018-03-26T22:48:05.338Z,4.10
2018-03-26T22:50:31.339Z,4.10
2018-03-26T22:52:57.327Z,4.10
2018-03-26T22:55:23.633Z,4.10
2018-03-26T22:57:49.643Z,4.00
2018-03-26T23:00:15.638Z,4.00
2018-03-26T23:02:42.643Z,4.00
2018-03-26T23:05:08.666Z,4.00
2018-03-26T23:07:34.643Z,4.00
2018-03-26T23:10:00.650Z,4.10
2018-03-26T23:12:27.374Z,4.00
2018-03-26T23:14:53.346Z,4.00
2018-03-26T23:17:19.376Z,3.90
2018-03-26T23:19:45.292Z,4.00
2018-03-26T23:22:11.303Z,4.00
2018-03-26T23:24:37.291Z,4.00
2018-03-26T23:27:03.302Z,4.00
2018-03-26T23:29:29.664Z,4.00
2018-03-26T23:31:56.413Z,3.90
2018-03-26T23:34:22.407Z,3.90
2018-03-26T23:36:49.174Z,3.80
2018-03-26T23:39:15.150Z,3.80
2018-03-26T23:41:41.166Z,3.90
2018-03-26T23:44:07.162Z,3.90
2018-03-26T23:46:34.803Z,3.90
2018-03-26T23:49:00.798Z,3.80
2018-03-26T23:51:27.794Z,3.80
2018-03-26T23:53:53.771Z,3.80
2018-03-26T23:56:20.587Z,3.80
2018-03-26T23:58:47.483Z,3.80
